sensor_id;sensor_type;location;lat;lon;timestamp;pressure;altitude;pressure_sealevel;temperature;humidity
31299;BME280;17927;52.350;13.402;2023-04-28T00:01:59;101570.84;;;9.31;41.71
31299;BME280;17927;52.350;13.402;2023-04-28T00:04:24;101576.38;;;9.29;41.75
31299;BME280;17927;52.350;13.402;2023-04-28T00:06:50;101569.47;;;9.25;41.63
31299;BME280;17927;52.350;13.402;2023-04-28T00:09:15;101571.66;;;9.20;41.86
31299;BME280;17927;52.350;13.402;2023-04-28T00:11:43;101562.94;;;9.17;41.83
31299;BME280;17927;52.350;13.402;2023-04-28T00:14:09;101567.56;;;9.14;41.77
31299;BME280;17927;52.350;13.402;2023-04-28T00:16:34;101565.34;;;9.08;42.08
31299;BME280;17927;52.350;13.402;2023-04-28T00:18:59;101561.16;;;9.04;42.13
31299;BME280;17927;52.350;13.402;2023-04-28T00:21:25;101559.44;;;9.03;42.23
31299;BME280;17927;52.350;13.402;2023-04-28T00:23:50;101558.69;;;9.01;42.41
31299;BME280;17927;52.350;13.402;2023-04-28T00:26:15;101558.81;;;8.99;42.28
31299;BME280;17927;52.350;13.402;2023-04-28T00:28:41;101563.31;;;8.99;42.23
31299;BME280;17927;52.350;13.402;2023-04-28T00:31:12;101555.00;;;9.02;42.48
31299;BME280;17927;52.350;13.402;2023-04-28T00:33:39;101544.34;;;9.01;42.33
31299;BME280;17927;52.350;13.402;2023-04-28T00:36:05;101545.94;;;9.03;42.23
31299;BME280;17927;52.350;13.402;2023-04-28T00:38:31;101533.44;;;9.02;42.43
31299;BME280;17927;52.350;13.402;2023-04-28T00:40:56;101544.22;;;9.02;42.52
31299;BME280;17927;52.350;13.402;2023-04-28T00:43:22;101532.59;;;9.02;42.56
31299;BME280;17927;52.350;13.402;2023-04-28T00:45:51;101535.03;;;9.05;42.62
31299;BME280;17927;52.350;13.402;2023-04-28T00:48:17;101534.31;;;9.03;42.57
31299;BME280;17927;52.350;13.402;2023-04-28T00:50:46;101533.44;;;9.02;42.71
31299;BME280;17927;52.350;13.402;2023-04-28T00:53:12;101531.72;;;9.01;42.91
31299;BME280;17927;52.350;13.402;2023-04-28T00:55:38;101528.19;;;9.01;42.91
31299;BME280;17927;52.350;13.402;2023-04-28T00:58:07;101524.63;;;9.00;42.95
31299;BME280;17927;52.350;13.402;2023-04-28T01:00:33;101533.44;;;9.02;42.41
31299;BME280;17927;52.350;13.402;2023-04-28T01:02:58;101529.03;;;9.01;42.47
31299;BME280;17927;52.350;13.402;2023-04-28T01:05:24;101520.84;;;9.03;42.58
31299;BME280;17927;52.350;13.402;2023-04-28T01:07:50;101527.09;;;9.03;42.73
31299;BME280;17927;52.350;13.402;2023-04-28T01:10:16;101519.13;;;9.02;42.70
31299;BME280;17927;52.350;13.402;2023-04-28T01:12:41;101518.25;;;9.01;42.78
31299;BME280;17927;52.350;13.402;2023-04-28T01:15:11;101514.72;;;9.01;43.20
31299;BME280;17927;52.350;13.402;2023-04-28T01:17:39;101520.09;;;9.01;42.78
31299;BME280;17927;52.350;13.402;2023-04-28T01:20:05;101514.72;;;9.01;42.74
31299;BME280;17927;52.350;13.402;2023-04-28T01:22:30;101511.13;;;9.00;42.90
31299;BME280;17927;52.350;13.402;2023-04-28T01:24:55;101519.13;;;9.02;42.90
31299;BME280;17927;52.350;13.402;2023-04-28T01:27:22;101504.69;;;9.03;42.89
31299;BME280;17927;52.350;13.402;2023-04-28T01:29:47;101509.19;;;9.02;43.08
31299;BME280;17927;52.350;13.402;2023-04-28T01:32:12;101507.38;;;9.03;42.78
31299;BME280;17927;52.350;13.402;2023-04-28T01:34:38;101513.75;;;9.02;42.96
31299;BME280;17927;52.350;13.402;2023-04-28T01:37:03;101506.63;;;9.01;42.78
31299;BME280;17927;52.350;13.402;2023-04-28T01:39:28;101503.06;;;9.00;43.01
31299;BME280;17927;52.350;13.402;2023-04-28T01:41:53;101499.50;;;8.99;43.13
31299;BME280;17927;52.350;13.402;2023-04-28T01:44:19;101506.63;;;9.01;43.03
31299;BME280;17927;52.350;13.402;2023-04-28T01:46:44;101498.63;;;8.99;43.12
31299;BME280;17927;52.350;13.402;2023-04-28T01:49:09;101500.34;;;9.00;43.12
31299;BME280;17927;52.350;13.402;2023-04-28T01:51:34;101502.22;;;8.99;43.42
31299;BME280;17927;52.350;13.402;2023-04-28T01:54:00;101501.31;;;8.99;43.67
31299;BME280;17927;52.350;13.402;2023-04-28T01:56:25;101494.13;;;8.99;43.34
31299;BME280;17927;52.350;13.402;2023-04-28T01:58:50;101497.78;;;8.98;43.28
31299;BME280;17927;52.350;13.402;2023-04-28T02:01:15;101491.53;;;8.98;43.51
31299;BME280;17927;52.350;13.402;2023-04-28T02:03:41;101482.59;;;8.97;43.58
31299;BME280;17927;52.350;13.402;2023-04-28T02:06:06;101489.78;;;8.97;43.69
31299;BME280;17927;52.350;13.402;2023-04-28T02:08:31;101489.78;;;8.97;43.47
31299;BME280;17927;52.350;13.402;2023-04-28T02:10:56;101491.53;;;8.98;43.65
31299;BME280;17927;52.350;13.402;2023-04-28T02:13:22;101485.16;;;8.99;43.60
31299;BME280;17927;52.350;13.402;2023-04-28T02:15:48;101487.00;;;8.98;43.56
31299;BME280;17927;52.350;13.402;2023-04-28T02:18:13;101492.41;;;8.98;43.56
31299;BME280;17927;52.350;13.402;2023-04-28T02:20:38;101483.44;;;8.98;43.79
31299;BME280;17927;52.350;13.402;2023-04-28T02:23:04;101484.31;;;8.98;43.67
31299;BME280;17927;52.350;13.402;2023-04-28T02:25:30;101484.31;;;8.98;43.90
31299;BME280;17927;52.350;13.402;2023-04-28T02:27:55;101485.16;;;8.99;43.66
31299;BME280;17927;52.350;13.402;2023-04-28T02:30:21;101478.78;;;9.00;43.76
31299;BME280;17927;52.350;13.402;2023-04-28T02:32:47;101473.53;;;8.98;43.72
31299;BME280;17927;52.350;13.402;2023-04-28T02:35:13;101473.41;;;9.00;43.78
31299;BME280;17927;52.350;13.402;2023-04-28T02:37:38;101474.38;;;8.99;43.55
31299;BME280;17927;52.350;13.402;2023-04-28T02:40:03;101480.66;;;8.99;43.83
31299;BME280;17927;52.350;13.402;2023-04-28T02:42:29;101468.00;;;9.00;43.42
31299;BME280;17927;52.350;13.402;2023-04-28T02:44:54;101461.56;;;9.03;43.79
31299;BME280;17927;52.350;13.402;2023-04-28T02:47:20;101469.63;;;9.03;43.46
31299;BME280;17927;52.350;13.402;2023-04-28T02:49:45;101457.84;;;9.04;43.85
31299;BME280;17927;52.350;13.402;2023-04-28T02:52:10;101459.69;;;9.03;43.63
31299;BME280;17927;52.350;13.402;2023-04-28T02:54:35;101464.13;;;9.04;43.78
31299;BME280;17927;52.350;13.402;2023-04-28T02:57:01;101460.44;;;9.05;43.69
31299;BME280;17927;52.350;13.402;2023-04-28T02:59:28;101460.22;;;9.08;43.55
31299;BME280;17927;52.350;13.402;2023-04-28T03:01:53;101463.78;;;9.09;43.29
31299;BME280;17927;52.350;13.402;2023-04-28T03:04:19;101462.78;;;9.10;43.79
31299;BME280;17927;52.350;13.402;2023-04-28T03:06:44;101455.59;;;9.10;43.20
31299;BME280;17927;52.350;13.402;2023-04-28T03:09:10;101457.28;;;9.11;43.80
31299;BME280;17927;52.350;13.402;2023-04-28T03:11:35;101458.16;;;9.12;43.57
31299;BME280;17927;52.350;13.402;2023-04-28T03:14:01;101454.47;;;9.13;43.78
31299;BME280;17927;52.350;13.402;2023-04-28T03:16:26;101449.09;;;9.13;43.79
31299;BME280;17927;52.350;13.402;2023-04-28T03:18:51;101453.50;;;9.14;43.71
31299;BME280;17927;52.350;13.402;2023-04-28T03:21:16;101448.13;;;9.14;43.80
31299;BME280;17927;52.350;13.402;2023-04-28T03:23:42;101448.13;;;9.14;43.58
31299;BME280;17927;52.350;13.402;2023-04-28T03:26:07;101443.56;;;9.14;43.82
31299;BME280;17927;52.350;13.402;2023-04-28T03:28:32;101448.00;;;9.16;44.01
31299;BME280;17927;52.350;13.402;2023-04-28T03:30:58;101443.56;;;9.14;43.74
31299;BME280;17927;52.350;13.402;2023-04-28T03:33:23;101440.03;;;9.14;43.64
31299;BME280;17927;52.350;13.402;2023-04-28T03:35:48;101441.84;;;9.13;43.79
31299;BME280;17927;52.350;13.402;2023-04-28T03:38:14;101441.00;;;9.13;43.74
31299;BME280;17927;52.350;13.402;2023-04-28T03:40:39;101442.81;;;9.12;44.00
31299;BME280;17927;52.350;13.402;2023-04-28T03:43:05;101434.88;;;9.11;44.09
31299;BME280;17927;52.350;13.402;2023-04-28T03:45:30;101439.28;;;9.12;43.94
31299;BME280;17927;52.350;13.402;2023-04-28T03:47:56;101437.56;;;9.11;43.75
31299;BME280;17927;52.350;13.402;2023-04-28T03:50:21;101435.84;;;9.10;43.84
31299;BME280;17927;52.350;13.402;2023-04-28T03:52:46;101424.09;;;9.11;43.95
31299;BME280;17927;52.350;13.402;2023-04-28T03:55:11;101425.06;;;9.10;43.95
31299;BME280;17927;52.350;13.402;2023-04-28T03:57:37;101431.19;;;9.12;43.87
31299;BME280;17927;52.350;13.402;2023-04-28T04:00:03;101423.25;;;9.10;44.16
31299;BME280;17927;52.350;13.402;2023-04-28T04:02:28;101426.66;;;9.12;44.00
31299;BME280;17927;52.350;13.402;2023-04-28T04:04:53;101420.28;;;9.13;44.31
31299;BME280;17927;52.350;13.402;2023-04-28T04:07:19;101419.44;;;9.13;44.21
31299;BME280;17927;52.350;13.402;2023-04-28T04:09:45;101429.25;;;9.14;44.28
31299;BME280;17927;52.350;13.402;2023-04-28T04:12:10;101418.47;;;9.14;44.48
31299;BME280;17927;52.350;13.402;2023-04-28T04:14:35;101411.22;;;9.14;44.23
31299;BME280;17927;52.350;13.402;2023-04-28T04:17:01;101416.50;;;9.16;44.25
31299;BME280;17927;52.350;13.402;2023-04-28T04:19:26;101413.47;;;9.21;44.50
31299;BME280;17927;52.350;13.402;2023-04-28T04:21:52;101414.22;;;9.23;44.25
31299;BME280;17927;52.350;13.402;2023-04-28T04:24:17;101409.56;;;9.25;44.18
31299;BME280;17927;52.350;13.402;2023-04-28T04:26:42;101406.00;;;9.24;44.62
31299;BME280;17927;52.350;13.402;2023-04-28T04:29:08;101396.69;;;9.28;44.37
31299;BME280;17927;52.350;13.402;2023-04-28T04:31:33;101399.16;;;9.32;44.40
31299;BME280;17927;52.350;13.402;2023-04-28T04:33:58;101398.06;;;9.34;44.67
31299;BME280;17927;52.350;13.402;2023-04-28T04:36:23;101403.94;;;9.39;44.49
31299;BME280;17927;52.350;13.402;2023-04-28T04:38:49;101401.75;;;9.44;44.80
31299;BME280;17927;52.350;13.402;2023-04-28T04:41:14;101400.53;;;9.49;44.82
31299;BME280;17927;52.350;13.402;2023-04-28T04:43:39;101399.31;;;9.53;44.84
31299;BME280;17927;52.350;13.402;2023-04-28T04:46:05;101406.19;;;9.57;44.57
31299;BME280;17927;52.350;13.402;2023-04-28T04:48:30;101405.81;;;9.62;44.91
31299;BME280;17927;52.350;13.402;2023-04-28T04:50:55;101404.59;;;9.66;44.67
31299;BME280;17927;52.350;13.402;2023-04-28T04:53:20;101393.44;;;9.70;44.50
31299;BME280;17927;52.350;13.402;2023-04-28T04:55:46;101402.03;;;9.75;44.62
31299;BME280;17927;52.350;13.402;2023-04-28T04:58:11;101391.72;;;9.81;44.78
31299;BME280;17927;52.350;13.402;2023-04-28T05:00:36;101398.22;;;9.89;44.72
31299;BME280;17927;52.350;13.402;2023-04-28T05:03:02;101396.88;;;9.95;45.07
31299;BME280;17927;52.350;13.402;2023-04-28T05:05:28;101399.69;;;10.05;44.90
31299;BME280;17927;52.350;13.402;2023-04-28T05:07:53;101390.97;;;10.13;44.89
31299;BME280;17927;52.350;13.402;2023-04-28T05:10:18;101387.53;;;10.22;44.56
31299;BME280;17927;52.350;13.402;2023-04-28T05:12:43;101386.91;;;10.30;44.60
31299;BME280;17927;52.350;13.402;2023-04-28T05:15:09;101384.31;;;10.40;44.80
31299;BME280;17927;52.350;13.402;2023-04-28T05:17:36;101384.44;;;10.49;44.60
31299;BME280;17927;52.350;13.402;2023-04-28T05:20:02;101374.84;;;10.57;44.59
31299;BME280;17927;52.350;13.402;2023-04-28T05:22:27;101383.03;;;10.66;44.85
31299;BME280;17927;52.350;13.402;2023-04-28T05:24:52;101382.41;;;10.74;44.57
31299;BME280;17927;52.350;13.402;2023-04-28T05:27:18;101378.03;;;10.83;44.76
31299;BME280;17927;52.350;13.402;2023-04-28T05:29:43;101373.84;;;10.90;44.57
31299;BME280;17927;52.350;13.402;2023-04-28T05:32:08;101376.75;;;10.99;45.05
31299;BME280;17927;52.350;13.402;2023-04-28T05:34:34;101370.69;;;11.06;44.75
31299;BME280;17927;52.350;13.402;2023-04-28T05:36:59;101369.03;;;11.15;44.58
31299;BME280;17927;52.350;13.402;2023-04-28T05:39:25;101359.28;;;11.24;44.73
31299;BME280;17927;52.350;13.402;2023-04-28T05:41:50;101362.03;;;11.34;44.59
31299;BME280;17927;52.350;13.402;2023-04-28T05:44:15;101364.66;;;11.45;44.46
31299;BME280;17927;52.350;13.402;2023-04-28T05:46:40;101352.06;;;11.55;44.62
31299;BME280;17927;52.350;13.402;2023-04-28T05:49:06;101341.13;;;11.67;44.71
31299;BME280;17927;52.350;13.402;2023-04-28T05:51:31;101349.03;;;11.80;44.52
31299;BME280;17927;52.350;13.402;2023-04-28T05:53:57;101355.34;;;11.90;44.51
31299;BME280;17927;52.350;13.402;2023-04-28T05:56:22;101353.41;;;12.02;44.57
31299;BME280;17927;52.350;13.402;2023-04-28T05:58:48;101348.75;;;12.14;44.50
31299;BME280;17927;52.350;13.402;2023-04-28T06:01:15;101349.47;;;12.26;44.40
31299;BME280;17927;52.350;13.402;2023-04-28T06:03:40;101342.94;;;12.38;44.50
31299;BME280;17927;52.350;13.402;2023-04-28T06:06:06;101334.53;;;12.51;44.49
31299;BME280;17927;52.350;13.402;2023-04-28T06:08:32;101333.41;;;12.63;44.07
31299;BME280;17927;52.350;13.402;2023-04-28T06:10:57;101333.28;;;12.75;44.14
31299;BME280;17927;52.350;13.402;2023-04-28T06:13:22;101341.69;;;12.82;43.84
31299;BME280;17927;52.350;13.402;2023-04-28T06:15:47;101339.53;;;12.85;43.57
31299;BME280;17927;52.350;13.402;2023-04-28T06:18:13;101333.25;;;12.85;43.56
31299;BME280;17927;52.350;13.402;2023-04-28T06:20:40;101336.81;;;12.85;43.15
31299;BME280;17927;52.350;13.402;2023-04-28T06:23:05;101327.81;;;12.85;43.26
31299;BME280;17927;52.350;13.402;2023-04-28T06:25:31;101334.97;;;12.86;43.25
31299;BME280;17927;52.350;13.402;2023-04-28T06:27:56;101322.41;;;12.85;42.83
31299;BME280;17927;52.350;13.402;2023-04-28T06:30:22;101316.97;;;12.85;42.90
31299;BME280;17927;52.350;13.402;2023-04-28T06:32:47;101319.69;;;12.85;42.91
31299;BME280;17927;52.350;13.402;2023-04-28T06:35:13;101317.56;;;12.88;42.99
31299;BME280;17927;52.350;13.402;2023-04-28T06:37:38;101314.13;;;12.96;42.93
31299;BME280;17927;52.350;13.402;2023-04-28T06:40:04;101317.84;;;13.05;42.91
31299;BME280;17927;52.350;13.402;2023-04-28T06:42:29;101317.50;;;13.18;42.73
31299;BME280;17927;52.350;13.402;2023-04-28T06:44:54;101318.63;;;13.35;43.09
31299;BME280;17927;52.350;13.402;2023-04-28T06:47:20;101313.44;;;13.51;42.97
31299;BME280;17927;52.350;13.402;2023-04-28T06:49:45;101314.50;;;13.68;42.72
31299;BME280;17927;52.350;13.402;2023-04-28T06:52:14;101307.44;;;13.85;42.42
31299;BME280;17927;52.350;13.402;2023-04-28T06:54:39;101304.22;;;14.00;42.19
31299;BME280;17927;52.350;13.402;2023-04-28T06:57:04;101307.25;;;14.15;41.94
31299;BME280;17927;52.350;13.402;2023-04-28T06:59:30;101300.59;;;14.27;41.82
31299;BME280;17927;52.350;13.402;2023-04-28T07:01:55;101305.94;;;14.37;41.40
31299;BME280;17927;52.350;13.402;2023-04-28T07:04:21;101296.88;;;14.46;41.38
31299;BME280;17927;52.350;13.402;2023-04-28T07:06:46;101298.81;;;14.54;40.91
31299;BME280;17927;52.350;13.402;2023-04-28T07:09:11;101298.03;;;14.62;40.80
31299;BME280;17927;52.350;13.402;2023-04-28T07:11:36;101286.56;;;14.68;40.97
31299;BME280;17927;52.350;13.402;2023-04-28T07:14:02;101283.03;;;14.76;40.56
31299;BME280;17927;52.350;13.402;2023-04-28T07:16:27;101276.13;;;14.82;40.44
31299;BME280;17927;52.350;13.402;2023-04-28T07:18:52;101271.91;;;14.87;40.40
31299;BME280;17927;52.350;13.402;2023-04-28T07:21:17;101273.84;;;14.95;40.27
31299;BME280;17927;52.350;13.402;2023-04-28T07:23:43;101271.88;;;15.05;40.44
31299;BME280;17927;52.350;13.402;2023-04-28T07:26:08;101267.19;;;15.16;40.10
31299;BME280;17927;52.350;13.402;2023-04-28T07:28:34;101261.78;;;15.24;40.21
31299;BME280;17927;52.350;13.402;2023-04-28T07:30:59;101259.28;;;15.31;39.85
31299;BME280;17927;52.350;13.402;2023-04-28T07:33:24;101254.19;;;15.36;39.71
31299;BME280;17927;52.350;13.402;2023-04-28T07:35:50;101248.09;;;15.42;39.53
31299;BME280;17927;52.350;13.402;2023-04-28T07:38:16;101253.91;;;15.47;39.53
31299;BME280;17927;52.350;13.402;2023-04-28T07:40:42;101247.81;;;15.53;39.10
31299;BME280;17927;52.350;13.402;2023-04-28T07:43:08;101244.25;;;15.61;39.15
31299;BME280;17927;52.350;13.402;2023-04-28T07:45:37;101239.69;;;15.70;39.06
31299;BME280;17927;52.350;13.402;2023-04-28T07:48:02;101239.88;;;15.77;38.97
31299;BME280;17927;52.350;13.402;2023-04-28T07:50:27;101231.91;;;15.83;38.47
31299;BME280;17927;52.350;13.402;2023-04-28T07:52:53;101241.84;;;15.93;38.59
31299;BME280;17927;52.350;13.402;2023-04-28T07:55:18;101241.84;;;16.01;38.48
31299;BME280;17927;52.350;13.402;2023-04-28T07:57:43;101237.28;;;16.10;38.59
31299;BME280;17927;52.350;13.402;2023-04-28T08:00:09;101232.69;;;16.19;38.40
31299;BME280;17927;52.350;13.402;2023-04-28T08:02:35;101235.44;;;16.27;38.29
31299;BME280;17927;52.350;13.402;2023-04-28T08:05:01;101236.28;;;16.36;38.32
31299;BME280;17927;52.350;13.402;2023-04-28T08:07:27;101236.78;;;16.48;38.05
31299;BME280;17927;52.350;13.402;2023-04-28T08:09:52;101236.81;;;16.56;37.89
31299;BME280;17927;52.350;13.402;2023-04-28T08:12:19;101237.47;;;16.66;38.17
31299;BME280;17927;52.350;13.402;2023-04-28T08:14:44;101226.53;;;16.74;37.72
31299;BME280;17927;52.350;13.402;2023-04-28T08:17:10;101225.03;;;16.80;37.64
31299;BME280;17927;52.350;13.402;2023-04-28T08:19:35;101218.53;;;16.89;37.40
31299;BME280;17927;52.350;13.402;2023-04-28T08:22:00;101229.44;;;16.98;37.41
31299;BME280;17927;52.350;13.402;2023-04-28T08:24:30;101217.00;;;17.03;37.11
31299;BME280;17927;52.350;13.402;2023-04-28T08:26:58;101216.28;;;17.10;37.21
31299;BME280;17927;52.350;13.402;2023-04-28T08:29:24;101213.69;;;17.16;36.91
31299;BME280;17927;52.350;13.402;2023-04-28T08:31:50;101212.34;;;17.20;36.53
31299;BME280;17927;52.350;13.402;2023-04-28T08:34:15;101204.47;;;17.26;36.76
31299;BME280;17927;52.350;13.402;2023-04-28T08:36:40;101214.88;;;17.30;36.33
31299;BME280;17927;52.350;13.402;2023-04-28T08:39:05;101208.03;;;17.34;36.41
31299;BME280;17927;52.350;13.402;2023-04-28T08:41:37;101202.88;;;17.40;36.48
31299;BME280;17927;52.350;13.402;2023-04-28T08:44:07;101196.88;;;17.44;36.41
31299;BME280;17927;52.350;13.402;2023-04-28T08:46:33;101199.94;;;17.49;36.45
31299;BME280;17927;52.350;13.402;2023-04-28T08:49:00;101196.50;;;17.56;36.70
31299;BME280;17927;52.350;13.402;2023-04-28T08:51:34;101198.34;;;17.63;36.03
31299;BME280;17927;52.350;13.402;2023-04-28T08:54:02;101202.22;;;17.69;36.23
31299;BME280;17927;52.350;13.402;2023-04-28T08:56:31;101182.19;;;17.77;36.39
31299;BME280;17927;52.350;13.402;2023-04-28T08:59:00;101184.03;;;17.85;36.25
31299;BME280;17927;52.350;13.402;2023-04-28T09:01:26;101174.94;;;17.92;36.42
31299;BME280;17927;52.350;13.402;2023-04-28T09:03:53;101179.53;;;18.00;36.06
31299;BME280;17927;52.350;13.402;2023-04-28T09:06:18;101172.28;;;18.07;36.37
31299;BME280;17927;52.350;13.402;2023-04-28T09:08:43;101171.56;;;18.14;36.18
31299;BME280;17927;52.350;13.402;2023-04-28T09:11:10;101165.53;;;18.18;36.04
31299;BME280;17927;52.350;13.402;2023-04-28T09:13:37;101173.00;;;18.24;35.96
31299;BME280;17927;52.350;13.402;2023-04-28T09:16:03;101164.06;;;18.31;35.72
31299;BME280;17927;52.350;13.402;2023-04-28T09:18:29;101170.50;;;18.38;35.42
31299;BME280;17927;52.350;13.402;2023-04-28T09:21:08;101161.72;;;18.42;35.68
31299;BME280;17927;52.350;13.402;2023-04-28T09:23:35;101145.78;;;18.46;35.35
31299;BME280;17927;52.350;13.402;2023-04-28T09:26:10;101156.00;;;18.52;35.26
31299;BME280;17927;52.350;13.402;2023-04-28T09:28:35;101158.00;;;18.59;35.34
31299;BME280;17927;52.350;13.402;2023-04-28T09:31:01;101152.44;;;18.67;35.09
31299;BME280;17927;52.350;13.402;2023-04-28T09:33:27;101151.69;;;18.73;35.19
31299;BME280;17927;52.350;13.402;2023-04-28T09:35:52;101151.97;;;18.78;35.19
31299;BME280;17927;52.350;13.402;2023-04-28T09:38:19;101147.47;;;18.85;35.12
31299;BME280;17927;52.350;13.402;2023-04-28T09:41:01;101135.94;;;18.90;34.88
31299;BME280;17927;52.350;13.402;2023-04-28T09:43:30;101129.09;;;18.94;34.69
31299;BME280;17927;52.350;13.402;2023-04-28T09:45:58;101131.91;;;19.01;34.56
31299;BME280;17927;52.350;13.402;2023-04-28T09:48:29;101132.19;;;19.06;34.22
31299;BME280;17927;52.350;13.402;2023-04-28T09:50:55;101124.06;;;19.13;34.74
31299;BME280;17927;52.350;13.402;2023-04-28T09:53:24;101126.03;;;19.19;34.25
31299;BME280;17927;52.350;13.402;2023-04-28T09:55:51;101130.75;;;19.25;34.41
31299;BME280;17927;52.350;13.402;2023-04-28T09:58:19;101119.22;;;19.30;34.11
31299;BME280;17927;52.350;13.402;2023-04-28T10:00:45;101112.97;;;19.36;34.11
31299;BME280;17927;52.350;13.402;2023-04-28T10:03:11;101113.22;;;19.41;33.85
31299;BME280;17927;52.350;13.402;2023-04-28T10:05:38;101116.25;;;19.46;33.32
31299;BME280;17927;52.350;13.402;2023-04-28T10:08:04;101112.09;;;19.51;33.65
31299;BME280;17927;52.350;13.402;2023-04-28T10:10:30;101113.38;;;19.55;33.67
31299;BME280;17927;52.350;13.402;2023-04-28T10:12:55;101105.63;;;19.58;33.66
31299;BME280;17927;52.350;13.402;2023-04-28T10:15:22;101101.28;;;19.64;33.61
31299;BME280;17927;52.350;13.402;2023-04-28T10:17:49;101097.09;;;19.68;33.35
31299;BME280;17927;52.350;13.402;2023-04-28T10:20:15;101090.00;;;19.74;33.78
31299;BME280;17927;52.350;13.402;2023-04-28T10:23:16;101091.75;;;19.82;33.49
31299;BME280;17927;52.350;13.402;2023-04-28T10:25:48;101099.19;;;19.88;34.09
31299;BME280;17927;52.350;13.402;2023-04-28T10:28:15;101090.84;;;19.96;34.33
31299;BME280;17927;52.350;13.402;2023-04-28T10:30:41;101085.03;;;20.06;34.13
31299;BME280;17927;52.350;13.402;2023-04-28T10:35:41;101081.66;;;20.04;34.16
31299;BME280;17927;52.350;13.402;2023-04-28T10:40:51;101076.06;;;20.19;33.39
31299;BME280;17927;52.350;13.402;2023-04-28T10:48:18;101070.44;;;20.27;33.67
31299;BME280;17927;52.350;13.402;2023-04-28T10:56:08;101052.34;;;20.68;33.46
31299;BME280;17927;52.350;13.402;2023-04-28T10:58:34;101055.16;;;20.81;32.84
31299;BME280;17927;52.350;13.402;2023-04-28T11:06:22;101044.16;;;21.23;32.81
31299;BME280;17927;52.350;13.402;2023-04-28T11:08:52;101051.34;;;21.31;32.85
31299;BME280;17927;52.350;13.402;2023-04-28T11:11:21;101049.88;;;21.42;32.59
31299;BME280;17927;52.350;13.402;2023-04-28T11:13:48;101039.31;;;21.45;31.98
31299;BME280;17927;52.350;13.402;2023-04-28T11:16:24;101044.19;;;21.50;31.37
31299;BME280;17927;52.350;13.402;2023-04-28T11:18:55;101045.66;;;21.53;31.71
31299;BME280;17927;52.350;13.402;2023-04-28T11:21:22;101037.88;;;21.56;32.04
31299;BME280;17927;52.350;13.402;2023-04-28T11:23:49;101045.50;;;21.61;31.92
31299;BME280;17927;52.350;13.402;2023-04-28T11:26:14;101048.28;;;21.68;31.89
31299;BME280;17927;52.350;13.402;2023-04-28T11:28:51;101044.47;;;21.75;31.91
31299;BME280;17927;52.350;13.402;2023-04-28T11:31:18;101041.09;;;21.80;31.82
31299;BME280;17927;52.350;13.402;2023-04-28T11:33:59;101040.25;;;21.86;31.34
31299;BME280;17927;52.350;13.402;2023-04-28T11:36:32;101029.03;;;21.88;31.19
31299;BME280;17927;52.350;13.402;2023-04-28T11:38:58;101030.50;;;21.90;31.14
31299;BME280;17927;52.350;13.402;2023-04-28T11:41:24;101028.19;;;21.94;31.11
31299;BME280;17927;52.350;13.402;2023-04-28T11:43:50;101025.84;;;21.98;31.10
31299;BME280;17927;52.350;13.402;2023-04-28T11:46:17;101028.81;;;22.03;31.32
31299;BME280;17927;52.350;13.402;2023-04-28T11:48:43;101019.69;;;22.09;30.98
31299;BME280;17927;52.350;13.402;2023-04-28T11:51:08;101024.38;;;22.15;31.37
31299;BME280;17927;52.350;13.402;2023-04-28T11:53:43;101020.97;;;22.20;30.67
31299;BME280;17927;52.350;13.402;2023-04-28T11:56:09;101009.94;;;22.27;31.25
31299;BME280;17927;52.350;13.402;2023-04-28T11:58:34;101010.13;;;22.39;31.10
31299;BME280;17927;52.350;13.402;2023-04-28T12:01:12;101005.06;;;22.49;30.81
31299;BME280;17927;52.350;13.402;2023-04-28T12:03:46;101007.34;;;22.59;31.35
31299;BME280;17927;52.350;13.402;2023-04-28T12:06:16;101004.97;;;22.69;31.02
31299;BME280;17927;52.350;13.402;2023-04-28T12:08:42;101007.94;;;22.74;31.20
31299;BME280;17927;52.350;13.402;2023-04-28T12:11:12;101001.56;;;22.80;30.61
31299;BME280;17927;52.350;13.402;2023-04-28T12:13:38;101004.72;;;22.84;30.46
31299;BME280;17927;52.350;13.402;2023-04-28T12:16:04;100998.53;;;22.89;30.36
31299;BME280;17927;52.350;13.402;2023-04-28T12:18:31;101000.88;;;22.92;30.33
31299;BME280;17927;52.350;13.402;2023-04-28T12:20:57;100993.22;;;22.94;30.46
31299;BME280;17927;52.350;13.402;2023-04-28T12:23:33;100991.53;;;22.93;30.19
31299;BME280;17927;52.350;13.402;2023-04-28T12:25:59;100993.22;;;22.94;30.32
31299;BME280;17927;52.350;13.402;2023-04-28T12:28:38;100987.94;;;22.92;29.83
31299;BME280;17927;52.350;13.402;2023-04-28T12:31:05;100985.59;;;22.89;29.95
31299;BME280;17927;52.350;13.402;2023-04-28T12:33:32;100982.03;;;22.89;29.91
31299;BME280;17927;52.350;13.402;2023-04-28T12:36:04;100982.66;;;22.91;29.93
31299;BME280;17927;52.350;13.402;2023-04-28T12:38:32;100976.72;;;22.94;30.07
31299;BME280;17927;52.350;13.402;2023-04-28T12:40:58;100981.75;;;22.97;30.28
31299;BME280;17927;52.350;13.402;2023-04-28T12:43:23;100988.50;;;23.01;30.14
31299;BME280;17927;52.350;13.402;2023-04-28T12:45:51;100982.19;;;23.01;30.02
31299;BME280;17927;52.350;13.402;2023-04-28T12:48:17;100974.13;;;22.99;30.19
31299;BME280;17927;52.350;13.402;2023-04-28T12:50:43;100969.91;;;22.96;29.96
31299;BME280;17927;52.350;13.402;2023-04-28T12:53:08;100969.50;;;22.93;30.00
31299;BME280;17927;52.350;13.402;2023-04-28T12:55:35;100969.94;;;22.90;29.54
31299;BME280;17927;52.350;13.402;2023-04-28T12:58:00;100958.97;;;22.83;29.68
31299;BME280;17927;52.350;13.402;2023-04-28T13:00:26;100959.63;;;22.78;29.94